Terminal Aerodrome Forecast
Issued by NWS

Home | Current Version | Previous Version | Text Only | Print | Product List | Glossary On
Versions: 1 2 3 4 5 6 7 8 9 10 11 12 13 14 15 16 17 18 19 20 21 22 23 24 25 26 27 28 29
532
FTUS41 KBGM 161945 AAB
TAFRME
TAF AMD
KRME 161945Z 1620/1718 27008KT 3SM -SHSN OVC035
      TEMPO 1620/1621 1 1/2SM -SHSN OVC015
     FM162200 29009KT P6SM BKN045
     FM170000 30004KT P6SM SKC
     FM171600 00000KT P6SM BKN250=

USA.gov is the U.S. government's official web portal to all federal, state and local government web resources and services.